Jam Airport

Airport
ICAO code: 
OIBJ
IATA Code: 
KNR
Summary
ICAO Region: 
MID
Territory: 
Location: 
Jam, Bushehr Province
Serving: 
Bandar Siraf and Kangan
Elevation: 
2164 ft
Coordinates: 
Aerial View: 
27° 48' 53.096" N, 52° 21' 29.699" E
Metar
Observation
OIBJ 262000Z AUTO 30004KT //// // ////// 36/09 Q1003
Station
JAM AIRPORT
Date/Time
2022-06-26 20:00:00
Wind direction
300°
Wind speed
04 kts
Lowest cloud amount
n/a
Temperature
36°C
Dew point
9°C
Humidity
19%
QNH
1003 hPa
Weather condition
n/a

Airport serving the communities in Kangan county, Bushehr province, Iran.

Climatology

Warm Desert climate (Köppen climate classification BWh).

Runways

Designator Length Width Surface Rops
11/29 2350 45 ASP No/No
Airport map: 
Aerial View: 

SKYbrary Partners:

Safety knowledge contributed by: